Time;durP1;ratioP1;P1;durP2;ratioP2;P2;SDS_P1;SDS_P2;PMS_P1;PMS_P2;Temp;Humidity;BMP_temperature;BMP_pressure;BME280_temperature;BME280_humidity;BME280_pressure;Samples;Min_cycle;Max_cycle;Signal;HPM_P1;HPM_P2
2023/03/24 00:02:16;;;;;;;;;5.00;5.00;;;;;-147.17;100.00;-15917.19;5032781;28;51499;-48
2023/03/24 00:04:42;;;;;;;;;4.00;4.00;;;;;-147.17;100.00;-15917.19;5042972;28;51318;-46
2023/03/24 00:07:14;;;;;;;;;4.67;4.67;;;;;-147.17;100.00;-15917.19;5029321;28;51299;-48
2023/03/24 00:09:40;;;;;;;;;5.00;5.00;;;;;-147.17;100.00;-15917.19;5021428;28;51389;-49
2023/03/24 00:12:10;;;;;;;;;3.33;3.33;;;;;-147.17;100.00;-15917.19;5035802;28;53430;-47
2023/03/24 00:14:40;;;;;;;;;4.75;4.00;;;;;-147.17;100.00;-15917.19;5039624;28;51199;-47
2023/03/24 00:17:16;;;;;;;;;1.00;0.00;;;;;-147.17;100.00;-15917.19;5036188;28;51446;-46
2023/03/24 00:19:44;;;;;;;;;5.00;4.67;;;;;-147.17;100.00;-15917.19;5037246;28;51692;-47
2023/03/24 00:22:13;;;;;;;;;4.00;4.00;;;;;-147.17;100.00;-15917.19;5034084;28;51300;-48
2023/03/24 00:24:40;;;;;;;;;3.00;3.00;;;;;-147.17;100.00;-15917.19;5033018;28;51393;-49
2023/03/24 00:27:05;;;;;;;;;3.67;3.00;;;;;-147.17;100.00;-15917.19;5023177;28;51823;-47
2023/03/24 00:29:32;;;;;;;;;4.00;4.00;;;;;-147.17;100.00;-15917.19;5035421;28;51232;-47
2023/03/24 00:31:58;;;;;;;;;3.00;3.00;;;;;-147.17;100.00;-15917.19;5034908;28;52094;-48
2023/03/24 00:34:24;;;;;;;;;4.33;4.33;;;;;-147.17;100.00;-15917.19;5041477;28;51160;-46
2023/03/24 00:36:50;;;;;;;;;4.00;3.00;;;;;-147.17;100.00;-15917.19;5033515;28;52359;-46
2023/03/24 00:39:19;;;;;;;;;3.00;3.00;;;;;-147.17;100.00;-15917.19;5034985;28;51216;-46
2023/03/24 00:41:46;;;;;;;;;3.33;3.00;;;;;-147.17;100.00;-15917.19;5034959;28;52080;-48
2023/03/24 00:44:17;;;;;;;;;3.33;3.33;;;;;-147.17;100.00;-15917.19;5034816;28;51198;-46
2023/03/24 00:46:55;;;;;;;;;3.00;3.00;;;;;-147.17;100.00;-15917.19;5037973;28;51450;-47
2023/03/24 00:49:41;;;;;;;;;3.00;3.00;;;;;-147.17;100.00;-15917.19;5038647;28;52430;-46
2023/03/24 00:52:19;;;;;;;;;4.00;4.00;;;;;-147.17;100.00;-15917.19;5035160;28;51805;-47
2023/03/24 00:54:51;;;;;;;;;4.00;2.67;;;;;-147.17;100.00;-15917.19;5035905;28;51306;-47
2023/03/24 00:57:24;;;;;;;;;4.00;4.00;;;;;-147.17;100.00;-15917.19;5021982;28;51497;-49
2023/03/24 00:59:53;;;;;;;;;2.33;2.33;;;;;-147.17;100.00;-15917.19;5033357;28;51343;-48
2023/03/24 01:02:23;;;;;;;;;3.67;3.00;;;;;-147.17;100.00;-15917.19;5022565;28;51394;-47
2023/03/24 01:04:56;;;;;;;;;2.00;1.67;;;;;-147.17;100.00;-15917.19;5038712;28;51431;-47
2023/03/24 01:07:23;;;;;;;;;4.00;4.00;;;;;-147.17;100.00;-15917.19;5032486;28;51339;-47
2023/03/24 01:09:56;;;;;;;;;5.00;4.00;;;;;-147.17;100.00;-15917.19;5039862;28;53149;-47
2023/03/24 01:12:26;;;;;;;;;4.67;4.67;;;;;-147.17;100.00;-15917.19;5037375;28;51421;-46
2023/03/24 01:14:51;;;;;;;;;5.67;4.33;;;;;-147.17;100.00;-15917.19;5034607;28;51214;-47
2023/03/24 01:17:21;;;;;;;;;4.00;4.00;;;;;-147.17;100.00;-15917.19;5037121;28;51427;-47
2023/03/24 01:19:47;;;;;;;;;5.00;5.00;;;;;-147.17;100.00;-15917.19;5033238;28;52213;-47
2023/03/24 01:22:12;;;;;;;;;3.67;3.00;;;;;-147.17;100.00;-15917.19;5040551;28;51238;-49
2023/03/24 01:24:37;;;;;;;;;4.00;4.00;;;;;-147.17;100.00;-15917.19;5037659;28;51397;-47
2023/03/24 01:27:03;;;;;;;;;4.00;4.00;;;;;-147.17;100.00;-15917.19;5033581;28;51340;-48
2023/03/24 01:29:28;;;;;;;;;3.00;2.00;;;;;-147.17;100.00;-15917.19;5038310;28;51183;-49
2023/03/24 01:31:53;;;;;;;;;4.67;4.00;;;;;-147.17;100.00;-15917.19;5021820;28;52629;-48
2023/03/24 01:34:19;;;;;;;;;6.00;5.33;;;;;-147.17;100.00;-15917.19;5037713;28;52624;-46
2023/03/24 01:36:44;;;;;;;;;6.00;6.00;;;;;-147.17;100.00;-15917.19;5035466;28;51558;-49
2023/03/24 01:39:10;;;;;;;;;6.00;6.00;;;;;-147.17;100.00;-15917.19;5019162;28;52098;-47
2023/03/24 01:41:38;;;;;;;;;6.00;6.00;;;;;-147.17;100.00;-15917.19;5035802;28;52720;-48
2023/03/24 01:44:26;;;;;;;;;5.00;5.00;;;;;-147.17;100.00;-15917.19;5039448;28;51427;-46
2023/03/24 01:46:53;;;;;;;;;6.33;6.33;;;;;-147.17;100.00;-15917.19;5020219;28;51359;-47
2023/03/24 01:49:19;;;;;;;;;8.33;8.33;;;;;-147.17;100.00;-15917.19;5021362;28;51324;-46
2023/03/24 01:51:49;;;;;;;;;4.00;4.00;;;;;-147.17;100.00;-15917.19;5036519;28;52011;-47
2023/03/24 01:54:21;;;;;;;;;3.00;3.00;;;;;-147.17;100.00;-15917.19;5040361;28;52170;-47
2023/03/24 01:57:05;;;;;;;;;3.00;2.00;;;;;-147.17;100.00;-15917.19;5037270;28;52067;-47
2023/03/24 01:59:35;;;;;;;;;3.00;3.00;;;;;-147.17;100.00;-15917.19;5035881;28;51073;-48
2023/03/24 02:02:03;;;;;;;;;2.00;2.00;;;;;-147.17;100.00;-15917.19;5034077;28;51685;-47
2023/03/24 02:04:33;;;;;;;;;2.00;2.00;;;;;-147.17;100.00;-15917.19;5035473;28;51195;-48
2023/03/24 02:07:03;;;;;;;;;3.00;3.00;;;;;-147.17;100.00;-15917.19;5038345;28;51291;-47
2023/03/24 02:09:29;;;;;;;;;2.00;2.00;;;;;-147.17;100.00;-15917.19;5014647;28;51282;-49
2023/03/24 02:11:54;;;;;;;;;1.00;1.00;;;;;-147.17;100.00;-15917.19;5033410;28;51846;-48
2023/03/24 02:14:20;;;;;;;;;6.33;6.33;;;;;-147.17;100.00;-15917.19;5033588;28;51193;-48
2023/03/24 02:17:08;;;;;;;;;2.00;2.00;;;;;-147.17;100.00;-15917.19;5034936;28;51125;-48
2023/03/24 02:20:10;;;;;;;;;3.00;3.00;;;;;-147.17;100.00;-15917.19;5018043;28;52110;-50
2023/03/24 02:22:48;;;;;;;;;3.00;3.00;;;;;-147.17;100.00;-15917.19;5017166;28;51881;-47
2023/03/24 02:25:24;;;;;;;;;4.00;3.00;;;;;-147.17;100.00;-15917.19;5033065;28;52687;-46
2023/03/24 02:28:11;;;;;;;;;3.00;3.00;;;;;-147.17;100.00;-15917.19;5034028;28;51198;-49
2023/03/24 02:30:45;;;;;;;;;3.00;2.33;;;;;-147.17;100.00;-15917.19;5039102;28;51157;-48
2023/03/24 02:33:17;;;;;;;;;3.67;3.33;;;;;-147.17;100.00;-15917.19;5022486;28;53766;-46
2023/03/24 02:36:08;;;;;;;;;4.00;3.67;;;;;-147.17;100.00;-15917.19;5038262;28;51318;-46
2023/03/24 02:38:52;;;;;;;;;3.00;3.00;;;;;-147.17;100.00;-15917.19;5033183;28;51148;-47
2023/03/24 02:42:10;;;;;;;;;3.00;3.00;;;;;-147.17;100.00;-15917.19;5037480;28;51269;-46
2023/03/24 02:44:41;;;;;;;;;5.00;5.00;;;;;-147.17;100.00;-15917.19;4999760;28;52129;-46
2023/03/24 02:47:34;;;;;;;;;3.00;3.00;;;;;-147.17;100.00;-15917.19;5032023;28;51180;-48
2023/03/24 02:50:05;;;;;;;;;2.00;2.00;;;;;-147.17;100.00;-15917.19;5034507;28;52792;-48
2023/03/24 02:52:45;;;;;;;;;4.00;3.67;;;;;-147.17;100.00;-15917.19;5024326;28;51245;-48
2023/03/24 02:55:33;;;;;;;;;3.00;3.00;;;;;-147.17;100.00;-15917.19;5034633;28;53534;-46
2023/03/24 02:58:06;;;;;;;;;4.00;3.00;;;;;-147.17;100.00;-15917.19;5037322;28;51330;-45
2023/03/24 03:00:46;;;;;;;;;4.00;4.00;;;;;-147.17;100.00;-15917.19;5036837;28;51164;-47
2023/03/24 03:03:29;;;;;;;;;3.33;3.33;;;;;-147.17;100.00;-15917.19;5017961;28;51774;-47
2023/03/24 03:06:03;;;;;;;;;2.00;2.00;;;;;-147.17;100.00;-15917.19;5027137;28;52895;-46
2023/03/24 03:08:32;;;;;;;;;2.33;2.33;;;;;-147.17;100.00;-15917.19;4975541;28;1808297;-47
2023/03/24 03:11:01;;;;;;;;;3.00;3.00;;;;;-147.17;100.00;-15917.19;5039279;28;51217;-49
2023/03/24 03:13:33;;;;;;;;;3.00;2.00;;;;;-147.17;100.00;-15917.19;5029295;28;51780;-49
2023/03/24 03:16:04;;;;;;;;;2.33;2.00;;;;;-147.17;100.00;-15917.19;5032398;28;52563;-47
2023/03/24 03:18:40;;;;;;;;;2.00;2.00;;;;;-147.17;100.00;-15917.19;5042408;28;51165;-46
2023/03/24 03:21:12;;;;;;;;;2.00;2.00;;;;;-147.17;100.00;-15917.19;5036877;28;51121;-47
2023/03/24 03:23:44;;;;;;;;;1.33;1.00;;;;;-147.17;100.00;-15917.19;5035669;28;51533;-47
2023/03/24 03:26:15;;;;;;;;;1.33;1.33;;;;;-147.17;100.00;-15917.19;5035379;28;52046;-46
2023/03/24 03:28:48;;;;;;;;;2.33;2.00;;;;;-147.17;100.00;-15917.19;5034757;28;50869;-47
2023/03/24 03:31:28;;;;;;;;;2.67;1.33;;;;;-147.17;100.00;-15917.19;5036886;28;51005;-47
2023/03/24 03:34:16;;;;;;;;;1.00;1.00;;;;;-147.17;100.00;-15917.19;5042928;28;51188;-47
2023/03/24 03:37:05;;;;;;;;;1.00;1.00;;;;;-147.17;100.00;-15917.19;5045199;28;51829;-48
2023/03/24 03:39:35;;;;;;;;;2.00;1.00;;;;;-147.17;100.00;-15917.19;5038764;28;50974;-44
2023/03/24 03:42:03;;;;;;;;;1.00;1.00;;;;;-147.17;100.00;-15917.19;5037636;28;51105;-45
2023/03/24 03:44:30;;;;;;;;;1.00;1.00;;;;;-147.17;100.00;-15917.19;5035244;28;51683;-47
2023/03/24 03:46:55;;;;;;;;;1.33;1.00;;;;;-147.17;100.00;-15917.19;5029447;28;53881;-48
2023/03/24 03:49:21;;;;;;;;;0.00;0.00;;;;;-147.17;100.00;-15917.19;5032591;28;51130;-47
2023/03/24 03:51:47;;;;;;;;;1.33;1.00;;;;;-147.17;100.00;-15917.19;5032223;28;51184;-47
2023/03/24 03:54:15;;;;;;;;;1.00;1.00;;;;;-147.17;100.00;-15917.19;5036791;28;51417;-48
2023/03/24 03:56:41;;;;;;;;;1.33;0.33;;;;;-147.17;100.00;-15917.19;5042492;28;51756;-46
2023/03/24 03:59:09;;;;;;;;;0.00;0.00;;;;;-147.17;100.00;-15917.19;5023619;28;51304;-47
2023/03/24 04:01:36;;;;;;;;;1.00;0.00;;;;;-147.17;100.00;-15917.19;5040049;28;51109;-48
2023/03/24 04:04:01;;;;;;;;;0.33;0.33;;;;;-147.17;100.00;-15917.19;5032556;28;51428;-47
2023/03/24 04:06:39;;;;;;;;;1.00;1.00;;;;;-147.17;100.00;-15917.19;5041230;28;51303;-50
2023/03/24 04:09:30;;;;;;;;;0.33;0.33;;;;;-147.17;100.00;-15917.19;5040863;28;53121;-45
2023/03/24 04:12:02;;;;;;;;;1.00;0.00;;;;;-147.17;100.00;-15917.19;5029795;28;51230;-48
2023/03/24 04:14:49;;;;;;;;;1.00;1.00;;;;;-147.17;100.00;-15917.19;5038325;28;51320;-46
2023/03/24 04:17:29;;;;;;;;;1.67;1.33;;;;;-147.17;100.00;-15917.19;5043319;28;51949;-51
2023/03/24 04:19:57;;;;;;;;;1.00;1.00;;;;;-147.17;100.00;-15917.19;5036057;28;51234;-48
2023/03/24 04:23:03;;;;;;;;;1.00;1.00;;;;;-147.17;100.00;-15917.19;5032029;28;51222;-48
2023/03/24 04:25:55;;;;;;;;;0.00;0.00;;;;;-147.17;100.00;-15917.19;5037482;28;51437;-50
2023/03/24 04:28:36;;;;;;;;;0.33;0.33;;;;;-147.17;100.00;-15917.19;5037595;28;51835;-48
2023/03/24 04:31:16;;;;;;;;;2.00;1.67;;;;;-147.17;100.00;-15917.19;5037087;28;51286;-46
2023/03/24 04:34:02;;;;;;;;;0.00;0.00;;;;;-147.17;100.00;-15917.19;5036122;28;51529;-48
2023/03/24 04:36:43;;;;;;;;;1.00;1.00;;;;;-147.17;100.00;-15917.19;5020885;28;51402;-47
2023/03/24 04:39:17;;;;;;;;;3.33;0.67;;;;;-147.17;100.00;-15917.19;5036377;28;51680;-47
2023/03/24 04:41:46;;;;;;;;;0.00;0.00;;;;;-147.17;100.00;-15917.19;5038778;28;51188;-49
2023/03/24 04:44:16;;;;;;;;;1.00;0.33;;;;;-147.17;100.00;-15917.19;5028981;28;51328;-50
2023/03/24 04:46:42;;;;;;;;;0.00;0.00;;;;;-147.17;100.00;-15917.19;5039056;28;51595;-48
2023/03/24 04:49:08;;;;;;;;;1.00;1.00;;;;;-147.17;100.00;-15917.19;5034829;28;51494;-47
2023/03/24 04:51:33;;;;;;;;;3.00;2.00;;;;;-147.17;100.00;-15917.19;5034727;28;51452;-47
2023/03/24 04:53:58;;;;;;;;;1.00;0.00;;;;;-147.17;100.00;-15917.19;5034165;28;52053;-49
2023/03/24 04:56:56;;;;;;;;;2.00;1.33;;;;;-147.17;100.00;-15917.19;5039929;28;51283;-47
2023/03/24 04:59:21;;;;;;;;;0.67;0.00;;;;;-147.17;100.00;-15917.19;5026346;28;53784;-48
2023/03/24 05:01:50;;;;;;;;;1.00;1.00;;;;;-147.17;100.00;-15917.19;5028961;28;51429;-47
2023/03/24 05:04:21;;;;;;;;;2.00;1.00;;;;;-147.17;100.00;-15917.19;5033619;28;51313;-50
2023/03/24 05:06:48;;;;;;;;;1.00;1.00;;;;;-147.17;100.00;-15917.19;5036226;28;51912;-46
2023/03/24 05:09:16;;;;;;;;;1.00;1.00;;;;;-147.17;100.00;-15917.19;5037716;28;52085;-48
2023/03/24 05:11:42;;;;;;;;;2.00;2.00;;;;;-147.17;100.00;-15917.19;5033003;28;50968;-47
2023/03/24 05:14:07;;;;;;;;;0.67;0.67;;;;;-147.17;100.00;-15917.19;5035669;28;51368;-48
2023/03/24 05:16:33;;;;;;;;;0.67;0.67;;;;;-147.17;100.00;-15917.19;5038991;28;51454;-50
2023/03/24 05:18:59;;;;;;;;;1.33;1.00;;;;;-147.17;100.00;-15917.19;5036829;28;52425;-48
2023/03/24 05:21:25;;;;;;;;;1.67;1.33;;;;;-147.17;100.00;-15917.19;5039351;28;51159;-47
2023/03/24 05:23:50;;;;;;;;;1.00;1.00;;;;;-147.17;100.00;-15917.19;5036833;28;51268;-48
2023/03/24 05:26:15;;;;;;;;;1.67;1.00;;;;;-147.17;100.00;-15917.19;5032949;28;51407;-47
2023/03/24 05:28:41;;;;;;;;;0.67;0.67;;;;;-147.17;100.00;-15917.19;5038260;28;51926;-48
2023/03/24 05:31:06;;;;;;;;;2.00;1.33;;;;;-147.17;100.00;-15917.19;5035362;28;51288;-49
2023/03/24 05:33:31;;;;;;;;;1.00;0.00;;;;;-147.17;100.00;-15917.19;5027422;28;51188;-50
2023/03/24 05:35:57;;;;;;;;;1.00;1.00;;;;;-147.17;100.00;-15917.19;5031863;28;51320;-51
2023/03/24 05:38:22;;;;;;;;;2.00;1.00;;;;;-147.17;100.00;-15917.19;5039234;28;52030;-51
2023/03/24 05:40:47;;;;;;;;;3.00;2.00;;;;;-147.17;100.00;-15917.19;5033604;28;51918;-48
2023/03/24 05:43:14;;;;;;;;;2.00;2.00;;;;;-147.17;100.00;-15917.19;5024429;28;51290;-47
2023/03/24 05:45:40;;;;;;;;;2.00;1.00;;;;;-147.17;100.00;-15917.19;5037727;28;51997;-50
2023/03/24 05:48:06;;;;;;;;;1.00;0.67;;;;;-147.17;100.00;-15917.19;5035687;28;52143;-52
2023/03/24 05:50:31;;;;;;;;;1.00;1.00;;;;;-147.17;100.00;-15917.19;5036433;28;51207;-50
2023/03/24 05:52:57;;;;;;;;;2.00;1.33;;;;;-147.17;100.00;-15917.19;5033065;28;51146;-49
2023/03/24 05:55:22;;;;;;;;;2.00;1.00;;;;;-147.17;100.00;-15917.19;5037393;28;51255;-50
2023/03/24 05:57:48;;;;;;;;;2.00;1.00;;;;;-147.17;100.00;-15917.19;5033928;28;51499;-49
2023/03/24 06:00:17;;;;;;;;;0.67;0.67;;;;;-147.17;100.00;-15917.19;5037591;28;51127;-47
2023/03/24 06:02:43;;;;;;;;;3.00;3.00;;;;;-147.17;100.00;-15917.19;5037405;28;51296;-47
2023/03/24 06:05:10;;;;;;;;;2.00;1.00;;;;;-147.17;100.00;-15917.19;5032520;28;51305;-47
2023/03/24 06:07:41;;;;;;;;;2.67;2.00;;;;;-147.17;100.00;-15917.19;5037529;28;53137;-47
2023/03/24 06:10:10;;;;;;;;;1.00;1.00;;;;;-147.17;100.00;-15917.19;5038289;28;51239;-48
2023/03/24 06:12:35;;;;;;;;;2.00;1.00;;;;;-147.17;100.00;-15917.19;5015677;28;51205;-50
2023/03/24 06:15:01;;;;;;;;;2.00;1.00;;;;;-147.17;100.00;-15917.19;5026074;28;51272;-48
2023/03/24 06:17:29;;;;;;;;;1.00;1.00;;;;;-147.17;100.00;-15917.19;5025192;28;52699;-52
2023/03/24 06:20:02;;;;;;;;;2.00;2.00;;;;;-147.17;100.00;-15917.19;5032034;28;51203;-47
2023/03/24 06:22:29;;;;;;;;;3.00;1.00;;;;;-147.17;100.00;-15917.19;5035637;28;51163;-48
2023/03/24 06:24:55;;;;;;;;;1.00;0.33;;;;;-147.17;100.00;-15917.19;5037137;28;51209;-47
2023/03/24 06:27:24;;;;;;;;;3.33;2.00;;;;;-147.17;100.00;-15917.19;5032583;28;51888;-50
2023/03/24 06:29:54;;;;;;;;;1.00;1.00;;;;;-147.17;100.00;-15917.19;5033987;28;51276;-46
2023/03/24 06:32:19;;;;;;;;;2.00;1.00;;;;;-147.17;100.00;-15917.19;5027027;28;51299;-47
2023/03/24 06:34:45;;;;;;;;;1.33;1.00;;;;;-147.17;100.00;-15917.19;5031537;28;51164;-48
2023/03/24 06:37:10;;;;;;;;;1.00;1.00;;;;;-147.17;100.00;-15917.19;5027096;28;53153;-46
2023/03/24 06:39:35;;;;;;;;;2.00;2.00;;;;;-147.17;100.00;-15917.19;5017983;28;51062;-47
2023/03/24 06:42:01;;;;;;;;;1.00;1.00;;;;;-147.17;100.00;-15917.19;5032656;28;51125;-50
2023/03/24 06:44:26;;;;;;;;;2.00;1.33;;;;;-147.17;100.00;-15917.19;5032849;28;51464;-46
2023/03/24 06:46:52;;;;;;;;;2.00;1.33;;;;;-147.17;100.00;-15917.19;5031797;28;51186;-50
2023/03/24 06:49:17;;;;;;;;;4.67;2.33;;;;;-147.17;100.00;-15917.19;5032026;28;51278;-50
2023/03/24 06:51:43;;;;;;;;;0.67;0.33;;;;;-147.17;100.00;-15917.19;5033928;28;51149;-48
2023/03/24 06:54:08;;;;;;;;;3.33;2.67;;;;;-147.17;100.00;-15917.19;5035142;28;51134;-47
2023/03/24 06:56:34;;;;;;;;;1.00;0.33;;;;;-147.17;100.00;-15917.19;5036010;28;51180;-47
2023/03/24 06:59:00;;;;;;;;;3.00;2.00;;;;;-147.17;100.00;-15917.19;5033506;28;51192;-48
2023/03/24 07:01:26;;;;;;;;;2.00;2.00;;;;;-147.17;100.00;-15917.19;5030273;28;51350;-47
2023/03/24 07:03:52;;;;;;;;;2.33;1.00;;;;;-147.17;100.00;-15917.19;5036109;28;51195;-49
2023/03/24 07:06:17;;;;;;;;;1.67;1.67;;;;;-147.17;100.00;-15917.19;5033059;28;51345;-48
2023/03/24 07:08:43;;;;;;;;;4.33;3.00;;;;;-147.17;100.00;-15917.19;5033680;28;51710;-47
2023/03/24 07:11:09;;;;;;;;;2.00;1.00;;;;;-147.17;100.00;-15917.19;5022676;28;51322;-48
2023/03/24 07:13:35;;;;;;;;;4.33;3.00;;;;;-147.17;100.00;-15917.19;5034891;28;51483;-52
2023/03/24 07:16:01;;;;;;;;;1.33;1.00;;;;;-147.17;100.00;-15917.19;5035829;28;51273;-48
2023/03/24 07:18:26;;;;;;;;;1.00;1.00;;;;;-147.17;100.00;-15917.19;5033812;28;51961;-49
2023/03/24 07:20:52;;;;;;;;;3.67;2.00;;;;;-147.17;100.00;-15917.19;5026313;28;52080;-48
2023/03/24 07:23:17;;;;;;;;;2.00;1.67;;;;;-147.17;100.00;-15917.19;5035546;28;51499;-49
2023/03/24 07:25:43;;;;;;;;;2.67;1.67;;;;;-147.17;100.00;-15917.19;5034472;28;51217;-48
2023/03/24 07:28:09;;;;;;;;;4.00;2.67;;;;;-147.17;100.00;-15917.19;5041373;28;51285;-49
2023/03/24 07:30:36;;;;;;;;;4.00;3.00;;;;;-147.17;100.00;-15917.19;5036657;28;51241;-50
2023/03/24 07:33:06;;;;;;;;;4.00;2.00;;;;;-147.17;100.00;-15917.19;5038557;28;51164;-48
2023/03/24 07:35:32;;;;;;;;;1.00;0.33;;;;;-147.17;100.00;-15917.19;5032683;28;50973;-50
2023/03/24 07:37:59;;;;;;;;;2.67;1.67;;;;;-147.17;100.00;-15917.19;5037069;28;51480;-49
2023/03/24 07:40:25;;;;;;;;;3.00;2.67;;;;;-147.17;100.00;-15917.19;5034526;28;51153;-48
2023/03/24 07:42:50;;;;;;;;;4.00;1.00;;;;;-147.17;100.00;-15917.19;5037536;28;51235;-47
2023/03/24 07:45:16;;;;;;;;;2.67;1.67;;;;;-147.17;100.00;-15917.19;5036136;28;52234;-48
2023/03/24 07:47:43;;;;;;;;;2.33;2.00;;;;;-147.17;100.00;-15917.19;5039221;28;51022;-48
2023/03/24 07:50:09;;;;;;;;;1.00;1.00;;;;;-147.17;100.00;-14181.31;5040066;28;51444;-51
2023/03/24 07:52:40;;;;;;;;;4.00;3.00;;;;;-147.17;100.00;-15420.25;5032729;28;51152;-49
2023/03/24 07:55:10;;;;;;;;;4.00;3.67;;;;;-147.17;100.00;-15172.50;5038038;28;52301;-47
2023/03/24 07:57:36;;;;;;;;;6.00;3.67;;;;;-147.17;100.00;-14924.75;5038826;28;51603;-48
2023/03/24 08:00:14;;;;;;;;;3.00;2.67;;;;;-147.17;100.00;-14924.75;5045976;28;51225;-49
2023/03/24 08:02:41;;;;;;;;;1.00;1.00;;;;;-147.17;100.00;-15420.25;5043473;28;50999;-47
2023/03/24 08:05:09;;;;;;;;;2.33;1.00;;;;;-147.17;100.00;-13437.75;5037180;28;52265;-48
2023/03/24 08:07:38;;;;;;;;;8.67;8.33;;;;;-147.17;100.00;-10462.09;5025792;28;51399;-47
2023/03/24 08:10:04;;;;;;;;;4.67;4.00;;;;;-147.17;100.00;-11206.22;5033505;28;51290;-49
2023/03/24 08:12:29;;;;;;;;;1.67;1.00;;;;;-147.17;100.00;-12198.19;5037430;28;51640;-48
2023/03/24 08:14:55;;;;;;;;;4.67;3.67;;;;;-147.17;100.00;-12694.06;5026958;28;51312;-47
2023/03/24 08:17:20;;;;;;;;;2.00;2.00;;;;;-147.17;100.00;-9221.53;5029108;28;51252;-50
2023/03/24 08:19:47;;;;;;;;;5.33;2.67;;;;;-147.17;100.00;-10214.00;5035909;28;52501;-48
2023/03/24 08:22:12;;;;;;;;;4.00;4.00;;;;;-147.17;100.00;-12446.13;5036771;28;51393;-48
2023/03/24 08:24:38;;;;;;;;;2.67;2.00;;;;;-147.17;100.00;-8725.22;5040897;28;51773;-47
2023/03/24 08:27:06;;;;;;;;;2.00;2.00;;;;;-147.17;100.00;-10214.00;5025039;28;51344;-49
2023/03/24 08:29:33;;;;;;;;;4.00;3.00;;;;;-147.17;100.00;-7732.34;5034493;28;51220;-47
2023/03/24 08:31:59;;;;;;;;;2.00;1.00;;;;;-147.17;100.00;-9717.81;5017713;28;51035;-48
2023/03/24 08:34:25;;;;;;;;;1.00;1.00;;;;;-147.17;100.00;-8973.38;5037413;28;52976;-47
2023/03/24 08:36:51;;;;;;;;;1.00;1.00;;;;;-147.17;100.00;-8973.38;5040381;28;51383;-46
2023/03/24 08:39:16;;;;;;;;;3.33;2.33;;;;;-147.17;100.00;-10710.16;5021607;28;50986;-47
2023/03/24 08:41:42;;;;;;;;;1.00;1.00;;;;;-147.17;100.00;-9469.69;5034870;28;51457;-47
2023/03/24 08:44:09;;;;;;;;;2.00;2.00;;;;;-147.17;100.00;-9221.53;5034566;28;52324;-46
2023/03/24 08:46:34;;;;;;;;;4.33;4.00;;;;;-147.17;100.00;-9469.69;5027250;28;51568;-48
2023/03/24 08:49:00;;;;;;;;;3.00;3.00;;;;;-147.17;100.00;-8477.03;5034929;28;51369;-48
2023/03/24 08:51:26;;;;;;;;;3.00;2.00;;;;;-147.17;100.00;-9221.53;5033843;28;51215;-47
2023/03/24 08:53:52;;;;;;;;;1.67;1.00;;;;;-147.17;100.00;-6739.25;5038623;28;51671;-46
2023/03/24 08:56:19;;;;;;;;;1.33;1.33;;;;;-147.17;100.00;-5000.69;5032953;28;51262;-47
2023/03/24 08:58:47;;;;;;;;;3.33;3.00;;;;;-147.17;100.00;-6490.94;5037923;28;51300;-48
2023/03/24 09:01:13;;;;;;;;;3.00;2.00;;;;;-147.17;100.00;-7732.34;5037761;28;51318;-48
2023/03/24 09:03:38;;;;;;;;;3.00;2.00;;;;;-147.17;100.00;-8228.81;5034585;28;51227;-49
2023/03/24 09:06:05;;;;;;;;;1.33;1.00;;;;;-147.17;100.00;-7732.34;5033723;28;51754;-50
2023/03/24 09:08:30;;;;;;;;;2.67;2.67;;;;;-147.17;100.00;-8477.03;5040796;28;51213;-47
2023/03/24 09:10:56;;;;;;;;;0.67;0.67;;;;;-147.17;100.00;-8725.22;5036678;28;51346;-50
2023/03/24 09:13:21;;;;;;;;;3.67;2.00;;;;;-147.17;100.00;-8973.38;5036304;28;51699;-47
2023/03/24 09:15:58;;;;;;;;;2.00;2.00;;;;;-147.17;100.00;-9469.69;5034996;28;51253;-47
2023/03/24 09:18:24;;;;;;;;;1.00;1.00;;;;;-147.17;100.00;-10462.09;5024339;28;51213;-49
2023/03/24 09:20:50;;;;;;;;;3.33;3.33;;;;;-147.17;100.00;-11950.22;5034199;28;51188;-52
2023/03/24 09:23:16;;;;;;;;;0.67;0.67;;;;;-147.17;100.00;-12446.13;5036469;28;51376;-49
2023/03/24 09:25:41;;;;;;;;;1.67;1.67;;;;;-147.17;100.00;-9469.69;5031066;28;51286;-47
2023/03/24 09:28:07;;;;;;;;;2.00;1.00;;;;;-147.17;100.00;-7732.34;5032871;28;51035;-49
2023/03/24 09:30:36;;;;;;;;;6.67;6.33;;;;;-147.17;100.00;-8477.03;5032878;28;52117;-50
2023/03/24 09:33:02;;;;;;;;;3.67;3.00;;;;;-147.17;100.00;-7732.34;5036016;28;53759;-50
2023/03/24 09:35:27;;;;;;;;;2.00;2.00;;;;;-147.17;100.00;-4503.81;5035516;28;51286;-50
2023/03/24 09:37:54;;;;;;;;;2.00;1.00;;;;;-147.17;100.00;-4006.88;5026613;28;51600;-50
2023/03/24 09:40:25;;;;;;;;;3.67;2.00;;;;;-147.17;100.00;-3758.38;5036599;28;50930;-49
2023/03/24 09:43:00;;;;;;;;;3.00;2.33;;;;;-147.17;100.00;-4255.34;5036129;28;52319;-51
2023/03/24 09:45:27;;;;;;;;;2.00;2.00;;;;;-147.17;100.00;-775.19;5038384;28;51460;-46
2023/03/24 09:47:59;;;;;;;;;2.67;1.00;;;;;-147.17;100.00;1214.91;5034734;28;51252;-46
2023/03/24 09:50:52;;;;;;;;;1.33;1.33;;;;;-147.17;100.00;-277.75;5025048;28;51247;-46
2023/03/24 09:53:33;;;;;;;;;3.00;0.67;;;;;-147.17;100.00;-526.47;5027242;28;51342;-46
2023/03/24 09:56:09;;;;;;;;;1.67;0.67;;;;;-147.17;100.00;-1023.88;5034475;28;51112;-48
2023/03/24 09:58:35;;;;;;;;;1.33;1.33;;;;;-147.17;100.00;1463.72;5039189;28;50999;-51
2023/03/24 10:01:00;;;;;;;;;2.67;1.67;;;;;-147.17;100.00;717.28;5035716;28;51132;-47
2023/03/24 10:03:26;;;;;;;;;3.00;2.33;;;;;-147.17;100.00;-526.47;5037877;28;51758;-50
2023/03/24 10:06:04;;;;;;;;;1.00;1.00;;;;;-147.17;100.00;219.72;5030263;28;51322;-47
2023/03/24 10:08:34;;;;;;;;;2.33;1.33;;;;;-147.17;100.00;-1769.84;5025660;28;53795;-48
2023/03/24 10:11:02;;;;;;;;;1.00;1.00;;;;;-147.17;100.00;-3758.38;5033911;28;51787;-48
2023/03/24 10:13:38;;;;;;;;;3.00;3.00;;;;;-147.17;100.00;-5249.09;5035941;28;52051;-49
2023/03/24 10:16:18;;;;;;;;;2.00;2.00;;;;;-147.17;100.00;-5994.25;5033735;28;51805;-46
2023/03/24 10:19:27;;;;;;;;;3.67;2.00;;;;;-147.17;100.00;-5994.25;5027105;28;51451;-46
2023/03/24 10:22:19;;;;;;;;;2.00;2.00;;;;;-147.17;100.00;-7484.09;5001126;28;51320;-49
2023/03/24 10:25:07;;;;;;;;;1.00;0.67;;;;;-147.17;100.00;-5000.69;5023604;28;51243;-51
2023/03/24 10:27:52;;;;;;;;;1.33;1.00;;;;;-147.17;100.00;2459.22;5038153;28;51135;-50
2023/03/24 10:30:26;;;;;;;;;1.33;0.67;;;;;-147.17;100.00;8686.84;5039527;28;51002;-48
2023/03/24 10:32:53;;;;;;;;;2.00;1.00;;;;;-147.17;100.00;3703.94;5032252;28;51175;-48
2023/03/24 10:35:24;;;;;;;;;1.00;1.00;;;;;-147.17;100.00;966.09;5018065;28;52865;-49
2023/03/24 10:37:51;;;;;;;;;1.00;1.00;;;;;-147.17;100.00;4201.94;5030894;28;51195;-47
2023/03/24 10:40:19;;;;;;;;;1.67;1.00;;;;;-147.17;100.00;6692.91;5040684;28;51421;-57
2023/03/24 10:42:47;;;;;;;;;2.00;1.00;;;;;-147.17;100.00;8437.53;5039639;28;51235;-50
2023/03/24 10:45:25;;;;;;;;;2.33;2.00;;;;;-147.17;100.00;10182.97;5033894;28;51154;-50
2023/03/24 10:47:55;;;;;;;;;2.67;1.67;;;;;-147.17;100.00;6194.59;5032380;28;51577;-49
2023/03/24 10:50:24;;;;;;;;;3.33;2.33;;;;;-147.17;100.00;3952.94;5036346;28;51178;-46
2023/03/24 10:52:52;;;;;;;;;2.00;2.00;;;;;-147.17;100.00;3703.94;5021502;28;51246;-48
2023/03/24 10:55:22;;;;;;;;;3.67;2.00;;;;;-147.17;100.00;4949.06;5037776;28;52729;-47
2023/03/24 10:57:52;;;;;;;;;4.00;2.67;;;;;-147.17;100.00;3952.94;5019510;28;51323;-51
2023/03/24 11:00:25;;;;;;;;;3.33;2.67;;;;;-147.17;100.00;2708.13;5036472;28;51580;-49
2023/03/24 11:03:05;;;;;;;;;0.67;0.67;;;;;-147.17;100.00;2708.13;5031012;28;51519;-49
2023/03/24 11:05:36;;;;;;;;;0.67;0.33;;;;;-147.17;100.00;2210.31;5034043;28;51231;-49
2023/03/24 11:08:27;;;;;;;;;2.33;2.33;;;;;-147.17;100.00;5447.22;5038303;28;51196;-48
2023/03/24 11:10:53;;;;;;;;;2.67;2.67;;;;;-147.17;100.00;12428.22;5037866;28;51311;-48
2023/03/24 11:13:21;;;;;;;;;1.00;0.67;;;;;-147.17;100.00;9933.56;5033988;28;51374;-48
2023/03/24 11:16:04;;;;;;;;;2.00;2.00;;;;;-147.17;100.00;6692.91;5034972;28;51009;-52
2023/03/24 11:18:33;;;;;;;;;1.67;1.00;;;;;-147.17;100.00;6194.59;5033877;28;51399;-47
2023/03/24 11:21:03;;;;;;;;;1.00;1.00;;;;;-147.17;100.00;3454.97;5031675;28;51232;-48